createdAt,value
2022-12-11T00:02:07.323Z,95106.17
2022-12-11T00:04:36.675Z,95104.09
2022-12-11T00:07:06.068Z,95098.35
2022-12-11T00:09:35.489Z,95087.79
2022-12-11T00:12:05.687Z,95083.09
2022-12-11T00:14:35.208Z,95074.02
2022-12-11T00:17:04.243Z,95071.23
2022-12-11T00:19:33.426Z,95069.66
2022-12-11T00:22:02.376Z,95056.05
2022-12-11T00:24:31.690Z,95046.73
2022-12-11T00:27:00.573Z,95049.88
2022-12-11T00:29:29.474Z,95044.96
2022-12-11T00:31:58.497Z,95043.29
2022-12-11T00:34:27.970Z,95049.95
2022-12-11T00:36:56.963Z,95048.67
2022-12-11T00:39:25.638Z,95036.77
2022-12-11T00:41:54.951Z,95028.02
2022-12-11T00:44:24.950Z,95031.23
2022-12-11T00:46:54.778Z,95032.31
2022-12-11T00:49:23.552Z,95026.95
2022-12-11T00:51:52.652Z,95021.48
2022-12-11T00:54:21.948Z,95015.33
2022-12-11T00:56:51.351Z,95007.59
2022-12-11T00:59:20.556Z,95002.04
2022-12-11T01:01:49.577Z,95003.07
2022-12-11T01:04:18.532Z,94996.41
2022-12-11T01:06:48.046Z,94985.00
2022-12-11T01:09:35.785Z,94976.52
2022-12-11T01:12:06.752Z,94972.66
2022-12-11T01:14:37.170Z,94969.70
2022-12-11T01:17:05.890Z,94967.52
2022-12-11T01:19:35.434Z,94964.40
2022-12-11T01:22:04.238Z,94963.66
2022-12-11T01:24:35.665Z,94956.41
2022-12-11T01:27:06.107Z,94948.27
2022-12-11T01:29:36.032Z,94942.94
2022-12-11T01:32:06.052Z,94933.66
2022-12-11T01:34:35.437Z,94929.51
2022-12-11T01:37:04.835Z,94927.17
2022-12-11T01:39:33.932Z,94924.06
2022-12-11T01:42:03.921Z,94921.73
2022-12-11T01:44:33.060Z,94908.45
2022-12-11T01:47:03.517Z,94900.94
2022-12-11T01:49:32.568Z,94894.95
2022-12-11T01:52:08.100Z,94890.84
2022-12-11T01:54:37.817Z,94891.79
2022-12-11T01:57:10.897Z,94887.39
2022-12-11T01:59:43.586Z,94879.92
2022-12-11T02:02:22.355Z,94877.52
2022-12-11T02:04:51.410Z,94870.73
2022-12-11T02:07:21.434Z,94866.03
2022-12-11T02:09:51.439Z,94866.30
2022-12-11T02:12:21.040Z,94870.18
2022-12-11T02:15:03.754Z,94866.66
2022-12-11T02:17:39.193Z,94859.63
2022-12-11T02:20:16.560Z,94854.38
2022-12-11T02:22:56.853Z,94858.70
2022-12-11T02:25:49.289Z,94857.30
2022-12-11T02:28:21.448Z,94853.96
2022-12-11T02:31:17.050Z,94854.90
2022-12-11T02:34:02.524Z,94853.13
2022-12-11T02:36:57.658Z,94850.41
2022-12-11T02:39:28.792Z,94847.42
2022-12-11T02:41:58.976Z,94844.98
2022-12-11T02:44:32.723Z,94841.11
2022-12-11T02:47:05.308Z,94834.40
2022-12-11T02:49:34.599Z,94832.20
2022-12-11T02:52:06.686Z,94824.40
2022-12-11T02:54:38.685Z,94825.23
2022-12-11T02:57:29.861Z,94819.71
2022-12-11T02:59:59.459Z,94811.40
2022-12-11T03:02:28.707Z,94811.46
2022-12-11T03:04:59.956Z,94806.80
2022-12-11T03:07:33.906Z,94801.84
2022-12-11T03:10:04.726Z,94800.55
2022-12-11T03:12:37.852Z,94799.40
2022-12-11T03:15:11.787Z,94800.55
2022-12-11T03:18:16.283Z,94801.27
2022-12-11T03:20:51.932Z,94801.42
2022-12-11T03:23:29.086Z,94805.84
2022-12-11T03:26:05.815Z,94809.67
2022-12-11T03:28:57.437Z,94815.44
2022-12-11T03:31:44.398Z,94812.50
2022-12-11T03:34:25.499Z,94806.77
2022-12-11T03:36:58.110Z,94808.74
2022-12-11T03:39:33.932Z,94808.05
2022-12-11T03:42:07.512Z,94801.07
2022-12-11T03:44:37.532Z,94796.49
2022-12-11T03:47:09.889Z,94799.06
2022-12-11T03:49:42.964Z,94791.23
2022-12-11T03:52:14.995Z,94771.98
2022-12-11T03:54:47.976Z,94768.91
2022-12-11T03:57:21.740Z,94773.66
2022-12-11T03:59:51.346Z,94770.25
2022-12-11T04:02:21.262Z,94769.09
2022-12-11T04:04:51.900Z,94765.34
2022-12-11T04:07:20.578Z,94761.97
2022-12-11T04:09:50.604Z,94762.48
2022-12-11T04:12:19.485Z,94771.10
2022-12-11T04:15:03.839Z,94753.48
2022-12-11T04:17:54.261Z,94743.29
2022-12-11T04:20:42.379Z,94738.88
2022-12-11T04:23:37.598Z,94741.64
2022-12-11T04:26:08.735Z,94741.48
2022-12-11T04:28:38.740Z,94742.25
2022-12-11T04:31:11.262Z,94737.48
2022-12-11T04:33:41.745Z,94740.17
2022-12-11T04:36:12.281Z,94735.59
2022-12-11T04:38:41.612Z,94730.19
2022-12-11T04:41:14.107Z,94723.27
2022-12-11T04:43:45.606Z,94721.33
2022-12-11T04:46:20.769Z,94721.52
2022-12-11T04:48:56.797Z,94714.33
2022-12-11T04:51:28.858Z,94712.67
2022-12-11T04:53:58.569Z,94708.44
2022-12-11T04:56:27.458Z,94704.12
2022-12-11T04:58:57.684Z,94705.50
2022-12-11T05:01:27.343Z,94703.91
2022-12-11T05:03:56.499Z,94702.98
2022-12-11T05:06:25.990Z,94695.77
2022-12-11T05:08:55.399Z,94699.30
2022-12-11T05:11:25.377Z,94695.55
2022-12-11T05:13:54.791Z,94704.13
2022-12-11T05:16:23.793Z,94700.29
2022-12-11T05:18:52.600Z,94699.27
2022-12-11T05:21:21.587Z,94693.63
2022-12-11T05:23:50.782Z,94689.10
2022-12-11T05:26:21.790Z,94688.58
2022-12-11T05:28:55.210Z,94684.73
2022-12-11T05:31:27.290Z,94688.80
2022-12-11T05:33:56.273Z,94691.42
2022-12-11T05:36:28.101Z,94688.02
2022-12-11T05:38:59.168Z,94690.46
2022-12-11T05:41:30.164Z,94688.19
2022-12-11T05:44:00.097Z,94684.81
2022-12-11T05:46:31.591Z,94673.77
2022-12-11T05:49:02.858Z,94678.50
2022-12-11T05:51:36.326Z,94686.09
2022-12-11T05:54:05.672Z,94675.17
2022-12-11T05:56:36.119Z,94686.54
2022-12-11T05:59:07.025Z,94687.42
2022-12-11T06:01:41.954Z,94672.81
2022-12-11T06:04:12.755Z,94683.16
2022-12-11T06:06:41.753Z,94677.85
2022-12-11T06:09:14.542Z,94681.92
2022-12-11T06:11:43.616Z,94690.30
2022-12-11T06:14:13.387Z,94695.63
2022-12-11T06:16:42.660Z,94698.50
2022-12-11T06:19:16.140Z,94699.66
2022-12-11T06:21:47.073Z,94707.31
2022-12-11T06:24:16.679Z,94718.67
2022-12-11T06:26:45.362Z,94722.55
2022-12-11T06:29:14.050Z,94727.83
2022-12-11T06:31:43.336Z,94734.72
2022-12-11T06:34:13.884Z,94735.41
2022-12-11T06:36:42.455Z,94742.48
2022-12-11T06:39:11.244Z,94747.55
2022-12-11T06:41:41.271Z,94756.80
2022-12-11T06:44:10.368Z,94768.48
2022-12-11T06:46:39.144Z,94781.19
2022-12-11T06:49:07.940Z,94789.45
2022-12-11T06:51:36.725Z,94795.06
2022-12-11T06:54:05.716Z,94799.34
2022-12-11T06:56:35.220Z,94813.63
2022-12-11T06:59:07.311Z,94833.23
2022-12-11T07:01:36.998Z,94853.11
2022-12-11T07:04:05.986Z,94852.20
2022-12-11T07:06:34.679Z,94850.75
2022-12-11T07:09:07.453Z,94858.30
2022-12-11T07:11:36.237Z,94867.98
2022-12-11T07:14:05.033Z,94866.11
2022-12-11T07:16:34.366Z,94873.05
2022-12-11T07:19:03.222Z,94879.12
2022-12-11T07:21:32.522Z,94891.72
2022-12-11T07:24:01.412Z,94892.88
2022-12-11T07:26:30.408Z,94892.52
2022-12-11T07:29:00.213Z,94894.83
2022-12-11T07:31:30.495Z,94898.11
2022-12-11T07:34:05.011Z,94898.39
2022-12-11T07:36:34.873Z,94902.13
2022-12-11T07:39:03.964Z,94907.92
2022-12-11T07:41:32.856Z,94919.86
2022-12-11T07:44:01.744Z,94928.59
2022-12-11T07:46:33.237Z,94930.86
2022-12-11T07:49:02.294Z,94932.38
2022-12-11T07:51:32.511Z,94931.73
2022-12-11T07:54:02.241Z,94934.46
2022-12-11T07:56:32.314Z,94938.73
2022-12-11T07:59:05.926Z,94932.31
2022-12-11T08:01:36.847Z,94949.02
2022-12-11T08:04:08.799Z,94953.64
2022-12-11T08:06:40.047Z,94957.45
2022-12-11T08:09:17.445Z,94968.89
2022-12-11T08:11:50.980Z,94975.08
2022-12-11T08:14:20.485Z,94980.09
2022-12-11T08:16:49.831Z,94986.96
2022-12-11T08:19:18.569Z,94986.12
2022-12-11T08:21:47.363Z,94996.56
2022-12-11T08:24:20.544Z,95014.08
2022-12-11T08:26:49.537Z,95037.32
2022-12-11T08:29:18.331Z,95031.65
2022-12-11T08:31:47.527Z,95042.59
2022-12-11T08:34:16.214Z,95047.24
2022-12-11T08:36:45.202Z,95056.58
2022-12-11T08:39:13.890Z,95062.13
2022-12-11T08:41:42.678Z,95066.27
2022-12-11T08:44:16.365Z,95063.11
2022-12-11T08:46:46.502Z,95074.48
2022-12-11T08:49:15.396Z,95075.86
2022-12-11T08:51:43.870Z,95082.08
2022-12-11T08:54:12.557Z,95086.41
2022-12-11T08:56:41.140Z,95096.64
2022-12-11T08:59:09.646Z,95099.83
2022-12-11T09:01:38.532Z,95119.08
2022-12-11T09:04:07.298Z,95123.64
2022-12-11T09:06:35.883Z,95141.20
2022-12-11T09:09:04.771Z,95171.13
2022-12-11T09:11:36.312Z,95171.86
2022-12-11T09:14:07.900Z,95189.89
2022-12-11T09:16:40.865Z,95184.55
2022-12-11T09:19:14.538Z,95180.11
2022-12-11T09:21:43.961Z,95188.40
2022-12-11T09:24:14.017Z,95185.61
2022-12-11T09:26:42.884Z,95177.14
2022-12-11T09:29:12.692Z,95174.36
2022-12-11T09:31:42.403Z,95167.81
2022-12-11T09:34:13.643Z,95178.55
2022-12-11T09:36:44.432Z,95183.48
2022-12-11T09:39:14.912Z,95169.48
2022-12-11T09:42:02.022Z,95165.85
2022-12-11T09:44:35.841Z,95179.41
2022-12-11T09:47:18.135Z,95176.02
2022-12-11T09:49:48.381Z,95181.09
2022-12-11T09:52:19.811Z,95166.73
2022-12-11T09:55:00.009Z,95170.80
2022-12-11T09:57:48.816Z,95170.11
2022-12-11T10:00:17.302Z,95171.19
2022-12-11T10:03:10.161Z,95181.96
2022-12-11T10:05:52.249Z,95185.56
2022-12-11T10:08:23.615Z,95201.32
2022-12-11T10:10:58.942Z,95209.03
2022-12-11T10:13:57.629Z,95199.23
2022-12-11T10:16:47.447Z,95196.73
2022-12-11T10:19:22.356Z,95201.84
2022-12-11T10:21:52.920Z,95215.44
2022-12-11T10:27:40.115Z,95220.69
2022-12-11T10:30:36.189Z,95241.75
2022-12-11T10:33:33.393Z,95233.70
2022-12-11T10:36:01.977Z,95239.77
2022-12-11T10:38:43.893Z,95241.78
2022-12-11T10:41:18.497Z,95250.52
2022-12-11T10:43:50.140Z,95259.19
2022-12-11T10:46:25.134Z,95257.16
2022-12-11T10:48:59.434Z,95260.58
2022-12-11T10:51:31.155Z,95262.76
2022-12-11T10:54:34.253Z,95273.04
2022-12-11T10:57:04.578Z,95261.92
2022-12-11T10:59:50.768Z,95259.01
2022-12-11T11:02:27.184Z,95268.44
2022-12-11T11:04:58.077Z,95275.79
2022-12-11T11:07:29.540Z,95272.72
2022-12-11T11:10:12.952Z,95273.84
2022-12-11T11:12:50.049Z,95285.80
2022-12-11T11:15:30.837Z,95289.66
2022-12-11T11:18:12.088Z,95286.90
2022-12-11T11:20:48.149Z,95295.30
2022-12-11T11:23:19.089Z,95302.72
2022-12-11T11:25:54.436Z,95297.04
2022-12-11T11:28:31.302Z,95298.79
2022-12-11T11:31:10.999Z,95305.45
2022-12-11T11:34:03.437Z,95309.51
2022-12-11T11:36:34.424Z,95303.11
2022-12-11T11:39:03.112Z,95297.90
2022-12-11T11:41:41.116Z,95298.56
2022-12-11T11:44:15.535Z,95298.77
2022-12-11T11:46:49.878Z,95305.21
2022-12-11T11:49:47.215Z,95309.88
2022-12-11T11:52:39.450Z,95306.67
2022-12-11T11:55:20.316Z,95311.46
2022-12-11T11:58:07.848Z,95325.70
2022-12-11T12:00:36.635Z,95327.36
2022-12-11T12:03:15.736Z,95335.32
2022-12-11T12:05:53.257Z,95340.84
2022-12-11T12:08:27.644Z,95344.00
2022-12-11T12:11:05.989Z,95341.63
2022-12-11T12:13:50.186Z,95338.68
2022-12-11T12:16:55.364Z,95349.58
2022-12-11T12:19:43.212Z,95367.78
2022-12-11T12:22:21.233Z,95375.74
2022-12-11T12:25:03.219Z,95383.16
2022-12-11T12:27:52.616Z,95379.91
2022-12-11T12:30:23.699Z,95376.58
2022-12-11T12:32:58.045Z,95384.11
2022-12-11T12:35:38.419Z,95386.59
2022-12-11T12:38:14.974Z,95386.87
2022-12-11T12:40:56.055Z,95388.64
2022-12-11T12:44:00.725Z,95388.85
2022-12-11T12:46:32.234Z,95386.29
2022-12-11T12:49:02.896Z,95374.11
2022-12-11T12:51:32.062Z,95373.13
2022-12-11T12:54:10.562Z,95375.40
2022-12-11T12:56:43.973Z,95380.59
2022-12-11T12:59:27.822Z,95389.80
2022-12-11T13:02:00.828Z,95396.65
2022-12-11T13:04:55.561Z,95403.48
2022-12-11T13:07:33.096Z,95413.62
2022-12-11T13:10:24.715Z,95418.54
2022-12-11T13:12:54.014Z,95422.02
2022-12-11T13:15:43.918Z,95425.34
2022-12-11T13:18:35.118Z,95428.27
2022-12-11T13:21:25.732Z,95428.40
2022-12-11T13:23:55.849Z,95429.36
2022-12-11T13:26:33.016Z,95433.08
2022-12-11T13:29:01.707Z,95431.25
2022-12-11T13:31:35.790Z,95432.70
2022-12-11T13:34:21.394Z,95432.63
2022-12-11T13:36:52.039Z,95430.63
2022-12-11T13:39:29.566Z,95443.52
2022-12-11T13:42:02.095Z,95457.13
2022-12-11T13:44:41.835Z,95455.91
2022-12-11T13:47:16.685Z,95446.52
2022-12-11T13:49:49.551Z,95443.90
2022-12-11T13:52:23.767Z,95438.55
2022-12-11T13:54:53.985Z,95441.64
2022-12-11T13:57:31.581Z,95446.08
2022-12-11T14:00:00.473Z,95451.04
2022-12-11T14:02:34.429Z,95456.63
2022-12-11T14:05:07.992Z,95459.84
2022-12-11T14:07:42.096Z,95461.65
2022-12-11T14:10:23.551Z,95460.68
2022-12-11T14:12:57.998Z,95464.00
2022-12-11T14:15:28.376Z,95467.02
2022-12-11T14:17:58.364Z,95474.52
2022-12-11T14:20:32.340Z,95485.39
2022-12-11T14:23:18.041Z,95491.69
2022-12-11T14:25:59.007Z,95498.34
2022-12-11T14:28:30.849Z,95503.45
2022-12-11T14:31:02.211Z,95512.77
2022-12-11T14:33:53.227Z,95511.09
2022-12-11T14:36:24.061Z,95509.60
2022-12-11T14:39:05.139Z,95516.41
2022-12-11T14:41:47.748Z,95525.54
2022-12-11T14:44:19.682Z,95533.08
2022-12-11T14:46:50.762Z,95534.16
2022-12-11T14:49:37.662Z,95525.98
2022-12-11T14:52:11.267Z,95529.72
2022-12-11T14:54:45.381Z,95533.80
2022-12-11T14:57:20.926Z,95532.78
2022-12-11T14:59:53.005Z,95528.50
2022-12-11T15:02:24.115Z,95532.05
2022-12-11T15:05:18.734Z,95537.11
2022-12-11T15:08:02.622Z,95534.41
2022-12-11T15:10:41.301Z,95539.47
2022-12-11T15:13:10.692Z,95544.66
2022-12-11T15:15:47.801Z,95554.58
2022-12-11T15:18:24.646Z,95564.38
2022-12-11T15:21:13.011Z,95565.23
2022-12-11T15:23:52.848Z,95576.64
2022-12-11T15:26:36.284Z,95581.55
2022-12-11T15:29:07.603Z,95589.31
2022-12-11T15:31:36.204Z,95597.98
2022-12-11T15:34:22.974Z,95600.58
2022-12-11T15:36:51.802Z,95598.42
2022-12-11T15:39:20.288Z,95598.88
2022-12-11T15:41:48.972Z,95600.58
2022-12-11T15:44:21.801Z,95598.16
2022-12-11T15:46:50.642Z,95608.02
2022-12-11T15:49:24.255Z,95609.41
2022-12-11T15:51:53.129Z,95604.27
2022-12-11T15:54:21.819Z,95603.59
2022-12-11T15:56:50.508Z,95607.64
2022-12-11T15:59:19.598Z,95608.28
2022-12-11T16:01:48.102Z,95609.86
2022-12-11T16:04:16.762Z,95605.72
2022-12-11T16:06:46.785Z,95603.95
2022-12-11T16:09:15.669Z,95602.73
2022-12-11T16:11:44.253Z,95604.33
2022-12-11T16:14:13.043Z,95602.98
2022-12-11T16:16:41.622Z,95600.95
2022-12-11T16:19:10.207Z,95602.33
2022-12-11T16:21:38.688Z,95601.78
2022-12-11T16:24:07.375Z,95607.54
2022-12-11T16:26:35.959Z,95609.80
2022-12-11T16:29:04.541Z,95613.68
2022-12-11T16:31:33.255Z,95620.31
2022-12-11T16:34:02.121Z,95622.20
2022-12-11T16:36:30.700Z,95622.48
2022-12-11T16:38:59.387Z,95618.71
2022-12-11T16:41:27.969Z,95622.52
2022-12-11T16:43:56.549Z,95629.08
2022-12-11T16:46:26.199Z,95633.48
2022-12-11T16:48:54.948Z,95626.61
2022-12-11T16:51:23.939Z,95629.71
2022-12-11T16:53:52.424Z,95629.90
2022-12-11T16:56:21.006Z,95634.64
2022-12-11T16:58:50.405Z,95638.78
2022-12-11T17:01:18.909Z,95638.46
2022-12-11T17:03:47.572Z,95637.45
2022-12-11T17:06:18.406Z,95641.59
2022-12-11T17:08:47.809Z,95642.75
2022-12-11T17:11:19.682Z,95637.14
2022-12-11T17:13:53.268Z,95638.69
2022-12-11T17:16:26.471Z,95639.41
2022-12-11T17:18:57.091Z,95644.66
2022-12-11T17:21:26.189Z,95645.00
2022-12-11T17:23:54.873Z,95648.33
2022-12-11T17:26:25.507Z,95653.69
2022-12-11T17:28:53.982Z,95661.84
2022-12-11T17:31:23.118Z,95665.19
2022-12-11T17:33:51.869Z,95665.00
2022-12-11T17:36:22.403Z,95664.03
2022-12-11T17:38:50.876Z,95654.42
2022-12-11T17:41:21.325Z,95661.30
2022-12-11T17:43:51.627Z,95673.05
2022-12-11T17:46:21.194Z,95681.31
2022-12-11T17:48:49.919Z,95685.63
2022-12-11T17:51:24.763Z,95676.91
2022-12-11T17:53:56.287Z,95680.41
2022-12-11T17:56:25.295Z,95682.21
2022-12-11T17:58:54.185Z,95684.77
2022-12-11T18:01:22.806Z,95695.02
2022-12-11T18:03:51.527Z,95703.70
2022-12-11T18:06:20.755Z,95700.23
2022-12-11T18:08:49.234Z,95697.11
2022-12-11T18:11:21.803Z,95697.67
2022-12-11T18:13:51.553Z,95700.21
2022-12-11T18:16:30.345Z,95706.59
2022-12-11T18:18:59.130Z,95706.58
2022-12-11T18:21:32.308Z,95707.67
2022-12-11T18:24:01.802Z,95712.05
2022-12-11T18:26:30.410Z,95721.03
2022-12-11T18:28:59.194Z,95719.66
2022-12-11T18:31:27.845Z,95726.50
2022-12-11T18:33:56.875Z,95727.20
2022-12-11T18:36:25.865Z,95732.18
2022-12-11T18:38:54.557Z,95738.19
2022-12-11T18:41:23.548Z,95741.19
2022-12-11T18:43:52.234Z,95742.93
2022-12-11T18:46:21.784Z,95742.71
2022-12-11T18:48:51.044Z,95744.92
2022-12-11T18:51:25.088Z,95742.61
2022-12-11T18:53:53.794Z,95740.05
2022-12-11T18:56:24.464Z,95740.66
2022-12-11T18:58:53.157Z,95741.88
2022-12-11T19:01:27.573Z,95738.30
2022-12-11T19:04:03.201Z,95740.48
2022-12-11T19:06:35.808Z,95743.77
2022-12-11T19:09:05.201Z,95741.93
2022-12-11T19:11:35.034Z,95740.11
2022-12-11T19:14:05.540Z,95740.34
2022-12-11T19:16:39.467Z,95743.17
2022-12-11T19:19:11.762Z,95741.83
2022-12-11T19:21:41.019Z,95743.09
2022-12-11T19:24:14.362Z,95747.48
2022-12-11T19:26:43.611Z,95758.05
2022-12-11T19:29:32.951Z,95766.33
2022-12-11T19:32:05.148Z,95771.84
2022-12-11T19:34:33.834Z,95776.08
2022-12-11T19:37:02.419Z,95787.36
2022-12-11T19:39:31.110Z,95794.51
2022-12-11T19:41:59.801Z,95799.49
2022-12-11T19:44:28.373Z,95811.36
2022-12-11T19:46:56.912Z,95810.45
2022-12-11T19:49:25.538Z,95806.44
2022-12-11T19:51:55.453Z,95810.48
2022-12-11T19:54:24.954Z,95805.73
2022-12-11T19:56:54.051Z,95797.64
2022-12-11T19:59:22.531Z,95799.91
2022-12-11T20:01:51.060Z,95814.95
2022-12-11T20:04:20.522Z,95820.23
2022-12-11T20:06:49.202Z,95798.42
2022-12-11T20:09:18.382Z,95790.45
2022-12-11T20:11:48.108Z,95805.40
2022-12-11T20:14:24.019Z,95796.16
2022-12-11T20:17:10.922Z,95795.17
2022-12-11T20:19:42.119Z,95801.98
2022-12-11T20:22:11.532Z,95811.52
2022-12-11T20:24:40.210Z,95817.39
2022-12-11T20:27:10.431Z,95818.42
2022-12-11T20:29:39.327Z,95820.97
2022-12-11T20:32:08.073Z,95819.29
2022-12-11T20:34:36.998Z,95821.48
2022-12-11T20:37:05.586Z,95817.66
2022-12-11T20:39:34.367Z,95825.96
2022-12-11T20:42:05.117Z,95833.20
2022-12-11T20:44:33.690Z,95831.21
2022-12-11T20:47:02.273Z,95824.33
2022-12-11T20:49:31.263Z,95829.08
2022-12-11T20:52:00.155Z,95831.67
2022-12-11T20:54:28.839Z,95833.55
2022-12-11T20:56:57.828Z,95829.64
2022-12-11T20:59:26.522Z,95829.95
2022-12-11T21:01:56.134Z,95831.08
2022-12-11T21:04:25.415Z,95832.62
2022-12-11T21:06:57.213Z,95836.63
2022-12-11T21:09:27.090Z,95837.73
2022-12-11T21:11:58.575Z,95841.89
2022-12-11T21:14:28.359Z,95842.23
2022-12-11T21:16:56.940Z,95839.34
2022-12-11T21:19:25.993Z,95846.93
2022-12-11T21:21:54.517Z,95847.30
2022-12-11T21:24:27.723Z,95847.02
2022-12-11T21:26:58.546Z,95846.00
2022-12-11T21:29:29.603Z,95851.71
2022-12-11T21:31:58.596Z,95842.11
2022-12-11T21:34:28.082Z,95839.77
2022-12-11T21:36:57.328Z,95847.27
2022-12-11T21:39:28.462Z,95852.41
2022-12-11T21:41:58.370Z,95851.40
2022-12-11T21:47:16.804Z,95850.11
2022-12-11T21:49:45.490Z,95845.17
2022-12-11T21:52:14.693Z,95848.63
2022-12-11T21:54:43.378Z,95844.98
2022-12-11T21:57:12.362Z,95843.21
2022-12-11T21:59:41.263Z,95838.54
2022-12-11T22:02:12.544Z,95837.27
2022-12-11T22:04:42.517Z,95841.50
2022-12-11T22:07:11.108Z,95843.85
2022-12-11T22:09:39.686Z,95841.58
2022-12-11T22:12:10.362Z,95841.88
2022-12-11T22:14:39.001Z,95845.04
2022-12-11T22:17:07.688Z,95849.88
2022-12-11T22:19:36.789Z,95849.41
2022-12-11T22:22:05.683Z,95848.56
2022-12-11T22:24:35.386Z,95848.59
2022-12-11T22:27:05.230Z,95851.73
2022-12-11T22:29:34.086Z,95853.42
2022-12-11T22:32:03.929Z,95850.65
2022-12-11T22:34:32.481Z,95853.88
2022-12-11T22:37:02.701Z,95855.60
2022-12-11T22:39:31.383Z,95855.30
2022-12-11T22:42:00.079Z,95853.61
2022-12-11T22:44:29.168Z,95856.58
2022-12-11T22:46:57.855Z,95857.60
2022-12-11T22:49:26.846Z,95857.76
2022-12-11T22:51:58.299Z,95858.35
2022-12-11T22:54:27.168Z,95857.16
2022-12-11T22:56:55.884Z,95848.61
2022-12-11T22:59:24.977Z,95850.57
2022-12-11T23:01:54.269Z,95850.85
2022-12-11T23:04:23.470Z,95853.20
2022-12-11T23:06:53.177Z,95856.95
2022-12-11T23:09:21.755Z,95861.10
2022-12-11T23:11:51.063Z,95860.84
2022-12-11T23:14:20.053Z,95859.94
2022-12-11T23:16:49.249Z,95863.29
2022-12-11T23:19:23.751Z,95868.53
2022-12-11T23:21:54.942Z,95873.10
2022-12-11T23:24:23.914Z,95882.29
2022-12-11T23:26:52.692Z,95895.08
2022-12-11T23:29:21.690Z,95902.98
2022-12-11T23:31:51.028Z,95907.33
2022-12-11T23:34:20.285Z,95905.48
2022-12-11T23:36:49.691Z,95903.89
2022-12-11T23:39:18.682Z,95903.59
2022-12-11T23:41:47.909Z,95903.38
2022-12-11T23:44:17.912Z,95900.80
2022-12-11T23:46:47.917Z,95905.91
2022-12-11T23:49:17.655Z,95915.16
2022-12-11T23:51:46.722Z,95926.61
2022-12-11T23:54:15.904Z,95926.38
2022-12-11T23:56:45.839Z,95925.42
2022-12-11T23:59:15.670Z,95932.93
